createdAt,value
2018-07-05T00:00:16.277Z,20.60
2018-07-05T00:02:48.924Z,20.70
2018-07-05T00:05:21.828Z,20.70
2018-07-05T00:07:54.563Z,20.70
2018-07-05T00:10:27.279Z,20.80
2018-07-05T00:12:59.946Z,20.80
2018-07-05T00:15:32.719Z,20.80
2018-07-05T00:18:05.392Z,20.80
2018-07-05T00:20:38.107Z,20.90
2018-07-05T00:23:10.719Z,21.00
2018-07-05T00:25:43.591Z,21.00
2018-07-05T00:28:16.336Z,21.00
2018-07-05T00:30:49.192Z,21.10
2018-07-05T00:33:21.996Z,21.10
2018-07-05T00:35:54.692Z,21.20
2018-07-05T00:38:27.354Z,21.30
2018-07-05T00:41:00.040Z,21.30
2018-07-05T00:43:32.809Z,21.50
2018-07-05T00:46:05.380Z,21.60
2018-07-05T00:48:38.543Z,21.80
2018-07-05T00:51:11.277Z,21.90
2018-07-05T00:53:43.820Z,22.00
2018-07-05T00:56:16.551Z,22.10
2018-07-05T00:58:49.290Z,22.10
2018-07-05T01:01:22.016Z,22.10
2018-07-05T01:03:54.864Z,22.20
2018-07-05T01:06:28.228Z,22.20
2018-07-05T01:09:01.522Z,22.20
2018-07-05T01:11:34.092Z,22.20
2018-07-05T01:14:06.808Z,22.20
2018-07-05T01:16:39.448Z,22.20
2018-07-05T01:19:11.955Z,22.20
2018-07-05T01:21:44.907Z,22.20
2018-07-05T01:24:17.631Z,22.10
2018-07-05T01:26:50.347Z,22.10
2018-07-05T01:29:22.919Z,22.00
2018-07-05T01:31:55.428Z,22.00
2018-07-05T01:34:28.150Z,21.90
2018-07-05T01:37:00.880Z,21.90
2018-07-05T01:39:33.512Z,21.80
2018-07-05T01:42:06.143Z,21.70
2018-07-05T01:44:38.747Z,21.60
2018-07-05T01:47:11.481Z,21.60
2018-07-05T01:49:44.376Z,21.60
2018-07-05T01:52:17.147Z,21.50
2018-07-05T01:54:50.247Z,21.50
2018-07-05T01:57:22.836Z,21.40
2018-07-05T01:59:55.620Z,21.30
2018-07-05T02:02:28.219Z,21.10
2018-07-05T02:05:00.914Z,20.80
2018-07-05T02:07:33.503Z,20.40
2018-07-05T02:10:06.180Z,20.10
2018-07-05T02:12:38.803Z,19.90
2018-07-05T02:15:11.384Z,19.60
2018-07-05T02:17:43.951Z,19.50
2018-07-05T02:20:16.473Z,19.30
2018-07-05T02:22:49.216Z,19.20
2018-07-05T02:25:21.863Z,19.10
2018-07-05T02:27:54.575Z,19.00
2018-07-05T02:30:27.570Z,18.90
2018-07-05T02:33:00.344Z,18.80
2018-07-05T02:35:32.915Z,18.70
2018-07-05T02:38:11.332Z,18.70
2018-07-05T02:40:43.842Z,18.70
2018-07-05T02:43:16.408Z,18.70
2018-07-05T02:45:49.004Z,18.80
2018-07-05T02:48:21.568Z,18.80
2018-07-05T02:50:54.261Z,18.80
2018-07-05T02:53:27.123Z,18.80
2018-07-05T02:56:00.339Z,18.80
2018-07-05T02:58:33.047Z,18.80
2018-07-05T03:01:05.876Z,18.80
2018-07-05T03:03:38.759Z,18.80
2018-07-05T03:06:11.487Z,18.90
2018-07-05T03:08:44.124Z,18.90
2018-07-05T03:11:16.724Z,18.90
2018-07-05T03:13:49.212Z,18.90
2018-07-05T03:16:21.891Z,18.90
2018-07-05T03:18:54.623Z,18.90
2018-07-05T03:21:27.199Z,19.00
2018-07-05T03:23:59.768Z,19.00
2018-07-05T03:26:32.536Z,18.90
2018-07-05T03:29:05.253Z,18.80
2018-07-05T03:31:37.895Z,18.80
2018-07-05T03:34:10.744Z,18.80
2018-07-05T03:36:43.298Z,18.90
2018-07-05T03:39:16.095Z,19.00
2018-07-05T03:41:48.982Z,19.10
2018-07-05T03:44:21.863Z,19.10
2018-07-05T03:46:54.605Z,19.10
2018-07-05T03:49:27.195Z,19.10
2018-07-05T03:51:59.814Z,19.00
2018-07-05T03:54:32.876Z,19.10
2018-07-05T03:57:05.499Z,19.10
2018-07-05T03:59:38.487Z,19.00
2018-07-05T04:02:11.427Z,19.00
2018-07-05T04:04:44.184Z,19.00
2018-07-05T04:07:16.819Z,18.90
2018-07-05T04:09:49.311Z,18.90
2018-07-05T04:12:22.251Z,18.90
2018-07-05T04:14:54.744Z,18.80
2018-07-05T04:17:27.515Z,18.80
2018-07-05T04:20:00.159Z,18.90
2018-07-05T04:22:32.799Z,18.90
2018-07-05T04:25:05.500Z,18.90
2018-07-05T04:27:38.063Z,19.00
2018-07-05T04:30:10.776Z,19.10
2018-07-05T04:32:43.423Z,19.10
2018-07-05T04:35:16.199Z,19.20
2018-07-05T04:37:48.887Z,19.30
2018-07-05T04:40:21.475Z,19.30
2018-07-05T04:42:54.024Z,19.30
2018-07-05T04:45:26.708Z,19.30
2018-07-05T04:47:59.503Z,19.30
2018-07-05T04:50:32.224Z,19.20
2018-07-05T04:53:04.938Z,19.10
2018-07-05T04:55:37.511Z,19.00
2018-07-05T04:58:10.103Z,19.00
2018-07-05T05:00:42.862Z,19.00
2018-07-05T05:03:15.582Z,19.20
2018-07-05T05:05:48.308Z,19.30
2018-07-05T05:08:20.948Z,19.50
2018-07-05T05:10:53.661Z,19.60
2018-07-05T05:13:26.355Z,19.80
2018-07-05T05:15:59.052Z,19.90
2018-07-05T05:18:31.723Z,20.00
2018-07-05T05:21:04.483Z,20.10
2018-07-05T05:23:37.250Z,20.20
2018-07-05T05:26:10.096Z,20.20
2018-07-05T05:28:42.690Z,20.30
2018-07-05T05:31:15.440Z,20.30
2018-07-05T05:33:48.220Z,20.30
2018-07-05T05:36:20.972Z,20.40
2018-07-05T05:38:53.702Z,20.50
2018-07-05T05:41:26.783Z,20.60
2018-07-05T05:43:59.299Z,20.50
2018-07-05T05:46:31.991Z,20.60
2018-07-05T05:49:05.556Z,20.70
2018-07-05T05:51:38.332Z,20.80
2018-07-05T05:54:10.820Z,20.90
2018-07-05T05:56:43.412Z,20.90
2018-07-05T05:59:15.972Z,20.90
2018-07-05T06:01:48.719Z,21.00
2018-07-05T06:04:21.615Z,21.00
2018-07-05T06:06:54.306Z,21.20
2018-07-05T06:09:27.051Z,21.50
2018-07-05T06:11:59.840Z,21.90
2018-07-05T06:14:32.492Z,22.30
2018-07-05T06:17:05.208Z,22.70
2018-07-05T06:19:37.924Z,23.00
2018-07-05T06:22:10.734Z,23.40
2018-07-05T06:24:43.431Z,23.60
2018-07-05T06:27:15.972Z,23.90
2018-07-05T06:29:48.619Z,24.00
2018-07-05T06:32:21.283Z,24.10
2018-07-05T06:34:53.832Z,24.50
2018-07-05T06:37:26.363Z,24.90
2018-07-05T06:39:58.971Z,25.40
2018-07-05T06:42:31.655Z,25.60
2018-07-05T06:45:04.299Z,25.80
2018-07-05T06:47:36.884Z,26.30
2018-07-05T06:50:09.492Z,26.90
2018-07-05T06:52:42.031Z,27.20
2018-07-05T06:55:14.570Z,27.50
2018-07-05T06:57:47.139Z,27.50
2018-07-05T07:00:19.971Z,27.50
2018-07-05T07:02:52.505Z,28.00
2018-07-05T07:05:25.327Z,28.70
2018-07-05T07:07:58.004Z,29.30
2018-07-05T07:10:30.508Z,29.50
2018-07-05T07:13:03.047Z,30.10
2018-07-05T07:15:35.567Z,30.30
2018-07-05T07:18:08.283Z,30.40
2018-07-05T07:23:07.951Z,31.10
2018-07-05T07:25:40.543Z,31.30
2018-07-05T07:28:13.278Z,31.50
2018-07-05T07:30:46.060Z,31.60
2018-07-05T07:33:18.871Z,31.70
2018-07-05T07:35:51.759Z,31.80
2018-07-05T07:38:24.688Z,32.30
2018-07-05T07:40:57.343Z,32.40
2018-07-05T07:43:23.770Z,32.80
2018-07-05T07:45:50.212Z,33.30
2018-07-05T07:48:16.604Z,33.80
2018-07-05T07:50:43.039Z,34.00
2018-07-05T07:53:09.444Z,34.40
2018-07-05T07:55:35.868Z,34.40
2018-07-05T07:58:02.272Z,34.70
2018-07-05T08:00:28.703Z,35.10
2018-07-05T08:02:55.111Z,35.40
2018-07-05T08:05:21.539Z,35.10
2018-07-05T08:07:47.944Z,35.60
2018-07-05T08:10:14.367Z,34.80
2018-07-05T08:12:40.771Z,34.90
2018-07-05T08:15:07.508Z,35.40
2018-07-05T08:17:34.263Z,35.50
2018-07-05T08:20:00.692Z,36.30
2018-07-05T08:22:27.092Z,36.70
2018-07-05T08:24:53.843Z,36.90
2018-07-05T08:27:20.255Z,37.30
2018-07-05T08:29:46.964Z,37.60
2018-07-05T08:32:13.367Z,38.10
2018-07-05T08:34:39.795Z,38.50
2018-07-05T08:37:06.205Z,38.70
2018-07-05T08:39:32.628Z,38.90
2018-07-05T08:41:59.036Z,39.40
2018-07-05T08:44:25.465Z,39.70
2018-07-05T08:46:51.876Z,40.30
2018-07-05T08:49:18.303Z,40.30
2018-07-05T08:51:44.698Z,40.60
2018-07-05T08:54:11.132Z,40.30
2018-07-05T08:56:37.545Z,40.70
2018-07-05T08:59:04.005Z,40.70
2018-07-05T09:01:30.412Z,40.80
2018-07-05T09:03:56.821Z,41.00
2018-07-05T09:06:23.248Z,41.30
2018-07-05T09:08:49.696Z,41.40
2018-07-05T09:11:16.128Z,41.60
2018-07-05T09:13:42.531Z,41.60
2018-07-05T09:16:08.988Z,41.30
2018-07-05T09:18:35.392Z,41.70
2018-07-05T09:21:02.124Z,41.80
2018-07-05T09:23:28.632Z,42.80
2018-07-05T09:25:54.987Z,42.50
2018-07-05T09:28:21.398Z,43.00
2018-07-05T09:30:47.848Z,43.20
2018-07-05T09:33:14.255Z,42.90
2018-07-05T09:35:40.692Z,42.00
2018-07-05T09:40:33.981Z,41.70
2018-07-05T09:45:27.280Z,42.00
2018-07-05T09:47:53.680Z,42.30
2018-07-05T09:50:20.167Z,42.40
2018-07-05T09:52:46.570Z,42.30
2018-07-05T09:55:13.008Z,42.80
2018-07-05T09:57:39.412Z,43.20
2018-07-05T10:00:05.885Z,43.60
2018-07-05T10:02:32.292Z,44.10
2018-07-05T10:07:25.592Z,44.30
2018-07-05T10:09:52.015Z,44.60
2018-07-05T10:12:18.573Z,44.90
2018-07-05T10:14:44.998Z,44.50
2018-07-05T10:17:11.408Z,44.10
2018-07-05T10:19:37.835Z,44.40
2018-07-05T10:22:04.239Z,45.20
2018-07-05T10:24:30.648Z,45.90
2018-07-05T10:26:57.099Z,45.80
2018-07-05T10:29:29.719Z,46.10
2018-07-05T10:32:03.267Z,45.90
2018-07-05T10:34:29.671Z,45.90
2018-07-05T10:36:56.103Z,44.10
2018-07-05T10:39:22.509Z,43.20
2018-07-05T10:41:55.303Z,42.90
2018-07-05T10:44:28.212Z,43.80
2018-07-05T10:47:00.787Z,44.40
2018-07-05T10:49:33.436Z,45.00
2018-07-05T10:54:33.043Z,46.20
2018-07-05T10:57:05.649Z,46.20
2018-07-05T10:59:38.160Z,43.40
2018-07-05T11:02:10.780Z,42.70
2018-07-05T11:04:43.276Z,41.50
2018-07-05T11:07:16.128Z,40.20
2018-07-05T11:09:48.768Z,39.00
2018-07-05T11:12:21.425Z,37.60
2018-07-05T11:14:54.159Z,36.60
2018-07-05T11:17:26.667Z,36.20
2018-07-05T11:19:59.235Z,36.00
2018-07-05T11:22:31.803Z,35.80
2018-07-05T11:25:04.342Z,35.40
2018-07-05T11:27:37.267Z,35.10
2018-07-05T11:30:09.872Z,35.20
2018-07-05T11:35:09.493Z,37.80
2018-07-05T11:37:42.219Z,37.90
2018-07-05T11:40:14.927Z,37.50
2018-07-05T11:42:47.604Z,37.10
2018-07-05T11:45:20.315Z,37.40
2018-07-05T11:47:52.945Z,37.30
2018-07-05T11:50:25.551Z,37.30
2018-07-05T11:52:58.155Z,37.10
2018-07-05T11:55:30.886Z,36.50
2018-07-05T11:58:03.796Z,36.40
2018-07-05T12:00:36.347Z,35.60
2018-07-05T12:03:09.130Z,35.20
2018-07-05T12:05:41.808Z,34.60
2018-07-05T12:08:14.692Z,34.90
2018-07-05T12:10:47.148Z,35.10
2018-07-05T12:13:20.250Z,34.90
2018-07-05T12:15:52.844Z,34.50
2018-07-05T12:18:25.702Z,35.20
2018-07-05T12:20:58.238Z,36.90
2018-07-05T12:23:31.022Z,37.70
2018-07-05T12:26:03.612Z,38.70
2018-07-05T12:28:36.447Z,39.90
2018-07-05T12:31:09.149Z,40.00
2018-07-05T12:33:41.967Z,39.70
2018-07-05T12:36:14.863Z,39.10
2018-07-05T12:38:47.756Z,38.30
2018-07-05T12:41:20.295Z,37.70
2018-07-05T12:43:52.964Z,37.20
2018-07-05T12:46:25.539Z,37.60
2018-07-05T12:48:58.287Z,38.00
2018-07-05T12:51:30.821Z,38.20
2018-07-05T12:54:03.462Z,38.70
2018-07-05T12:56:36.151Z,38.50
2018-07-05T12:59:08.998Z,38.10
2018-07-05T13:01:41.936Z,37.60
2018-07-05T13:04:14.585Z,36.70
2018-07-05T13:06:47.047Z,36.60
2018-07-05T13:09:19.604Z,36.10
2018-07-05T13:11:52.191Z,35.20
2018-07-05T13:14:25.191Z,34.90
2018-07-05T13:16:57.795Z,35.20
2018-07-05T13:19:30.644Z,35.30
2018-07-05T13:22:03.389Z,35.30
2018-07-05T13:24:36.603Z,35.50
2018-07-05T13:27:09.406Z,34.90
2018-07-05T13:29:42.011Z,34.90
2018-07-05T13:32:14.511Z,34.90
2018-07-05T13:34:47.175Z,34.90
2018-07-05T13:37:19.683Z,34.60
2018-07-05T13:39:52.318Z,34.70
2018-07-05T13:42:25.008Z,34.90
2018-07-05T13:44:57.599Z,35.00
2018-07-05T13:47:30.244Z,35.10
2018-07-05T13:50:02.937Z,34.70
2018-07-05T13:52:35.509Z,34.20
2018-07-05T13:55:08.228Z,33.90
2018-07-05T13:57:40.792Z,33.70
2018-07-05T14:00:13.333Z,33.50
2018-07-05T14:02:45.931Z,33.60
2018-07-05T14:05:18.647Z,33.90
2018-07-05T14:07:51.146Z,34.70
2018-07-05T14:10:23.702Z,36.00
2018-07-05T14:12:56.327Z,37.20
2018-07-05T14:15:28.951Z,38.30
2018-07-05T14:18:01.613Z,38.90
2018-07-05T14:23:01.076Z,38.50
2018-07-05T14:25:33.795Z,38.70
2018-07-05T14:28:06.407Z,38.60
2018-07-05T14:30:39.080Z,37.80
2018-07-05T14:33:11.787Z,36.50
2018-07-05T14:35:44.344Z,35.40
2018-07-05T14:38:17.103Z,34.60
2018-07-05T14:40:49.703Z,34.20
2018-07-05T14:43:22.399Z,34.70
2018-07-05T14:45:54.939Z,35.20
2018-07-05T14:48:27.491Z,36.30
2018-07-05T14:51:00.080Z,37.00
2018-07-05T14:53:32.784Z,37.40
2018-07-05T14:56:05.288Z,36.30
2018-07-05T14:58:37.862Z,35.20
2018-07-05T15:01:10.360Z,33.80
2018-07-05T15:03:42.964Z,33.00
2018-07-05T15:06:15.567Z,32.60
2018-07-05T15:08:48.604Z,32.20
2018-07-05T15:11:21.364Z,31.90
2018-07-05T15:13:53.918Z,31.90
2018-07-05T15:16:26.611Z,31.60
2018-07-05T15:18:59.555Z,31.10
2018-07-05T15:21:32.071Z,31.00
2018-07-05T15:24:04.935Z,31.00
2018-07-05T15:26:37.434Z,31.20
2018-07-05T15:29:09.995Z,31.10
2018-07-05T15:31:42.548Z,31.10
2018-07-05T15:34:15.089Z,31.00
2018-07-05T15:36:47.731Z,30.90
2018-07-05T15:39:20.446Z,30.90
2018-07-05T15:41:53.243Z,30.80
2018-07-05T15:44:25.911Z,31.00
2018-07-05T15:46:58.567Z,30.80
2018-07-05T15:49:31.272Z,30.50
2018-07-05T15:52:03.887Z,30.00
2018-07-05T15:54:36.447Z,29.90
2018-07-05T15:57:09.316Z,29.90
2018-07-05T15:59:42.016Z,29.60
2018-07-05T16:02:14.735Z,29.30
2018-07-05T16:04:47.403Z,29.20
2018-07-05T16:07:19.971Z,29.00
2018-07-05T16:09:52.549Z,28.70
2018-07-05T16:12:25.235Z,28.50
2018-07-05T16:14:57.951Z,28.30
2018-07-05T16:17:30.719Z,28.10
2018-07-05T16:22:30.356Z,27.80
2018-07-05T16:25:03.189Z,27.70
2018-07-05T16:27:36.004Z,27.50
2018-07-05T16:30:08.924Z,27.40
2018-07-05T16:32:42.380Z,27.30
2018-07-05T16:35:15.172Z,27.20
2018-07-05T16:40:15.436Z,27.00
2018-07-05T16:42:47.996Z,27.00
2018-07-05T16:45:20.591Z,27.00
2018-07-05T16:47:53.217Z,26.90
2018-07-05T16:50:25.903Z,26.80
2018-07-05T16:52:58.624Z,26.70
2018-07-05T16:55:31.287Z,26.60
2018-07-05T16:58:03.835Z,26.60
2018-07-05T17:00:36.576Z,26.50
2018-07-05T17:03:09.112Z,26.40
2018-07-05T17:05:41.708Z,26.40
2018-07-05T17:08:14.453Z,26.40
2018-07-05T17:10:47.092Z,26.30
2018-07-05T17:13:19.616Z,26.30
2018-07-05T17:15:52.374Z,26.20
2018-07-05T17:18:25.044Z,26.20
2018-07-05T17:20:57.819Z,26.20
2018-07-05T17:23:30.711Z,26.10
2018-07-05T17:26:03.750Z,26.10
2018-07-05T17:28:36.272Z,26.10
2018-07-05T17:31:09.041Z,26.00
2018-07-05T17:33:41.756Z,26.00
2018-07-05T17:36:14.499Z,26.00
2018-07-05T17:38:47.063Z,26.00
2018-07-05T17:41:19.676Z,25.90
2018-07-05T17:43:52.327Z,25.90
2018-07-05T17:48:52.196Z,25.70
2018-07-05T17:51:24.949Z,25.70
2018-07-05T17:53:57.485Z,25.60
2018-07-05T17:56:30.199Z,25.60
2018-07-05T17:59:02.783Z,25.60
2018-07-05T18:01:35.472Z,25.60
2018-07-05T18:04:08.128Z,25.60
2018-07-05T18:06:40.799Z,25.60
2018-07-05T18:11:40.399Z,25.60
2018-07-05T18:14:13.181Z,25.50
2018-07-05T18:16:45.866Z,25.50
2018-07-05T18:19:18.698Z,25.50
2018-07-05T18:21:51.600Z,25.60
2018-07-05T18:24:24.343Z,25.60
2018-07-05T18:29:23.965Z,25.60
2018-07-05T18:31:56.603Z,25.60
2018-07-05T18:34:29.315Z,25.60
2018-07-05T18:37:02.541Z,25.40
2018-07-05T18:39:35.119Z,25.30
2018-07-05T18:42:07.834Z,25.00
2018-07-05T18:44:40.493Z,24.80
2018-07-05T18:47:13.261Z,24.70
2018-07-05T18:49:46.028Z,24.50
2018-07-05T18:52:18.711Z,24.40
2018-07-05T18:54:51.220Z,24.20
2018-07-05T18:57:23.855Z,24.00
2018-07-05T18:59:56.583Z,23.70
2018-07-05T19:02:29.200Z,23.40
2018-07-05T19:05:01.797Z,23.20
2018-07-05T19:07:34.495Z,23.00
2018-07-05T19:10:07.096Z,22.70
2018-07-05T19:12:39.874Z,22.60
2018-07-05T19:15:12.408Z,22.40
2018-07-05T19:17:44.895Z,22.30
2018-07-05T19:20:17.619Z,22.10
2018-07-05T19:22:50.227Z,22.00
2018-07-05T19:25:22.888Z,21.90
2018-07-05T19:27:55.591Z,21.90
2018-07-05T19:30:28.288Z,21.90
2018-07-05T19:33:01.476Z,21.80
2018-07-05T19:35:34.276Z,21.70
2018-07-05T19:38:07.095Z,21.60
2018-07-05T19:40:39.635Z,21.50
2018-07-05T19:43:12.572Z,21.50
2018-07-05T19:45:45.211Z,21.40
2018-07-05T19:48:17.913Z,21.30
2018-07-05T19:50:50.685Z,21.20
2018-07-05T19:53:23.375Z,21.20
2018-07-05T19:55:55.920Z,21.00
2018-07-05T19:58:28.479Z,20.90
2018-07-05T20:01:01.033Z,20.80
2018-07-05T20:03:33.713Z,20.70
2018-07-05T20:06:06.423Z,20.70
2018-07-05T20:08:39.103Z,20.70
2018-07-05T20:11:11.648Z,20.70
2018-07-05T20:13:44.269Z,20.60
2018-07-05T20:16:16.983Z,20.60
2018-07-05T20:18:49.580Z,20.50
2018-07-05T20:21:22.238Z,20.50
2018-07-05T20:23:55.336Z,20.50
2018-07-05T20:26:27.859Z,20.40
2018-07-05T20:29:00.447Z,20.40
2018-07-05T20:31:33.235Z,20.30
2018-07-05T20:34:05.819Z,20.20
2018-07-05T20:36:38.456Z,20.30
2018-07-05T20:39:11.091Z,20.30
2018-07-05T20:41:44.127Z,20.20
2018-07-05T20:44:16.704Z,20.20
2018-07-05T20:46:49.399Z,20.10
2018-07-05T20:49:22.188Z,20.10
2018-07-05T20:51:54.930Z,20.10
2018-07-05T20:54:27.575Z,20.10
2018-07-05T20:57:00.124Z,20.00
2018-07-05T20:59:32.836Z,20.00
2018-07-05T21:02:05.428Z,19.90
2018-07-05T21:04:37.947Z,19.90
2018-07-05T21:07:10.512Z,19.90
2018-07-05T21:09:43.255Z,19.80
2018-07-05T21:12:15.904Z,19.80
2018-07-05T21:14:48.540Z,19.70
2018-07-05T21:17:21.161Z,19.60
2018-07-05T21:19:53.904Z,19.60
2018-07-05T21:22:26.543Z,19.50
2018-07-05T21:24:59.120Z,19.50
2018-07-05T21:27:31.780Z,19.40
2018-07-05T21:30:04.488Z,19.40
2018-07-05T21:32:37.119Z,19.30
2018-07-05T21:35:10.275Z,19.20
2018-07-05T21:37:42.852Z,19.00
2018-07-05T21:40:15.651Z,18.90
2018-07-05T21:42:48.311Z,18.90
2018-07-05T21:45:21.101Z,18.90
2018-07-05T21:47:53.769Z,18.90
2018-07-05T21:50:26.815Z,18.80
2018-07-05T21:52:59.512Z,18.80
2018-07-05T21:55:32.099Z,18.90
2018-07-05T21:58:04.923Z,19.00
2018-07-05T22:00:37.711Z,19.00
2018-07-05T22:03:10.486Z,19.00
2018-07-05T22:05:43.020Z,19.10
2018-07-05T22:08:15.791Z,19.10
2018-07-05T22:10:48.535Z,19.10
2018-07-05T22:13:21.256Z,19.10
2018-07-05T22:15:54.227Z,19.20
2018-07-05T22:18:32.696Z,19.30
2018-07-05T22:21:10.340Z,19.30
2018-07-05T22:23:48.732Z,19.30
2018-07-05T22:26:27.275Z,19.30
2018-07-05T22:31:33.335Z,19.20
2018-07-05T22:34:06.044Z,19.10
2018-07-05T22:36:38.704Z,19.10
2018-07-05T22:39:11.231Z,19.10
2018-07-05T22:41:43.875Z,19.10
2018-07-05T22:44:16.391Z,19.00
2018-07-05T22:46:48.876Z,18.90
2018-07-05T22:49:21.667Z,18.80
2018-07-05T22:51:54.424Z,18.90
2018-07-05T22:54:26.912Z,18.80
2018-07-05T22:56:59.551Z,18.80
2018-07-05T22:59:32.347Z,18.70
2018-07-05T23:02:05.040Z,18.70
2018-07-05T23:04:37.661Z,18.70
2018-07-05T23:07:10.347Z,18.60
2018-07-05T23:09:43.108Z,18.60
2018-07-05T23:12:15.948Z,18.60
2018-07-05T23:14:48.760Z,18.60
2018-07-05T23:17:21.239Z,18.50
2018-07-05T23:19:53.868Z,18.50
2018-07-05T23:22:26.435Z,18.40
2018-07-05T23:24:58.976Z,18.30
2018-07-05T23:27:31.735Z,18.30
2018-07-05T23:30:04.364Z,18.20
2018-07-05T23:32:37.135Z,18.10
2018-07-05T23:35:10.012Z,18.10
2018-07-05T23:37:42.784Z,18.10
2018-07-05T23:40:15.431Z,18.00
2018-07-05T23:42:48.468Z,17.90
2018-07-05T23:45:21.115Z,17.80
2018-07-05T23:47:53.932Z,17.80
2018-07-05T23:50:26.580Z,17.70
2018-07-05T23:52:59.148Z,17.60
2018-07-05T23:55:31.911Z,17.60
2018-07-05T23:58:04.615Z,17.60
